createdAt,value
2019-06-27T00:00:22.774Z,97.70
2019-06-27T00:03:11.918Z,97.80
2019-06-27T00:06:01.402Z,97.80
2019-06-27T00:08:50.069Z,97.70
2019-06-27T00:11:39.244Z,97.70
2019-06-27T00:14:27.739Z,97.80
2019-06-27T00:17:17.188Z,97.90
2019-06-27T00:20:07.275Z,98.00
2019-06-27T00:22:56.418Z,97.90
2019-06-27T00:25:45.609Z,98.10
2019-06-27T00:28:35.923Z,98.00
2019-06-27T00:31:24.575Z,98.20
2019-06-27T00:34:13.907Z,98.20
2019-06-27T00:37:03.315Z,98.20
2019-06-27T00:39:52.667Z,98.20
2019-06-27T00:42:41.957Z,98.10
2019-06-27T00:45:30.906Z,98.20
2019-06-27T00:48:20.111Z,98.30
2019-06-27T00:51:09.285Z,98.30
2019-06-27T00:53:58.662Z,98.20
2019-06-27T00:56:48.155Z,98.30
2019-06-27T00:59:36.995Z,98.40
2019-06-27T01:02:25.565Z,98.40
2019-06-27T01:05:14.288Z,98.50
2019-06-27T01:08:03.367Z,98.50
2019-06-27T01:10:52.089Z,98.70
2019-06-27T01:13:40.787Z,98.90
2019-06-27T01:16:29.904Z,98.80
2019-06-27T01:19:19.212Z,98.50
2019-06-27T01:22:08.021Z,98.70
2019-06-27T01:24:57.099Z,99.00
2019-06-27T01:27:45.580Z,98.70
2019-06-27T01:30:34.609Z,98.70
2019-06-27T01:33:23.673Z,98.60
2019-06-27T01:36:13.095Z,98.90
2019-06-27T01:39:01.875Z,99.00
2019-06-27T01:41:51.321Z,98.90
2019-06-27T01:44:58.864Z,98.90
2019-06-27T01:47:48.012Z,98.90
2019-06-27T01:50:37.396Z,98.90
2019-06-27T01:53:26.242Z,99.00
2019-06-27T01:56:15.390Z,99.00
2019-06-27T01:59:04.533Z,98.90
2019-06-27T02:01:54.414Z,99.10
2019-06-27T02:04:43.161Z,99.10
2019-06-27T02:07:32.884Z,99.10
2019-06-27T02:10:22.332Z,99.20
2019-06-27T02:13:10.995Z,99.20
2019-06-27T02:16:00.145Z,99.40
2019-06-27T02:18:49.483Z,99.40
2019-06-27T02:21:38.507Z,99.60
2019-06-27T02:24:27.595Z,99.70
2019-06-27T02:27:16.575Z,99.60
2019-06-27T02:30:07.121Z,99.70
2019-06-27T02:32:56.060Z,99.70
2019-06-27T02:35:45.601Z,99.90
2019-06-27T02:38:35.001Z,99.80
2019-06-27T02:41:24.324Z,99.80
2019-06-27T02:44:13.839Z,99.90
2019-06-27T02:47:03.086Z,99.90
2019-06-27T02:49:52.084Z,99.90
2019-06-27T02:52:41.720Z,99.90
2019-06-27T02:55:30.803Z,99.90
2019-06-27T02:58:30.625Z,99.90
2019-06-27T03:01:10.508Z,99.90
2019-06-27T03:03:59.787Z,99.90
2019-06-27T03:06:49.018Z,99.90
2019-06-27T03:09:38.209Z,99.90
2019-06-27T03:12:27.230Z,99.90
2019-06-27T03:15:16.525Z,99.90
2019-06-27T03:18:05.266Z,99.90
2019-06-27T03:20:54.477Z,99.90
2019-06-27T03:23:43.306Z,99.90
2019-06-27T03:26:33.091Z,99.90
2019-06-27T03:29:21.906Z,99.90
2019-06-27T03:32:13.691Z,99.90
2019-06-27T03:35:02.504Z,99.90
2019-06-27T03:37:53.823Z,99.90
2019-06-27T03:40:42.632Z,99.90
2019-06-27T03:43:31.616Z,99.90
2019-06-27T03:46:20.960Z,99.90
2019-06-27T03:49:09.817Z,99.90
2019-06-27T03:51:59.289Z,99.90
2019-06-27T03:54:47.993Z,99.90
2019-06-27T03:57:36.967Z,99.90
2019-06-27T04:00:32.016Z,99.90
2019-06-27T04:03:20.842Z,99.90
2019-06-27T04:06:09.977Z,99.90
2019-06-27T04:08:59.155Z,99.90
2019-06-27T04:11:48.564Z,99.90
2019-06-27T04:14:37.611Z,99.90
2019-06-27T04:17:27.187Z,99.90
2019-06-27T04:20:16.896Z,99.90
2019-06-27T04:23:05.735Z,99.90
2019-06-27T04:25:54.948Z,99.90
2019-06-27T04:28:44.195Z,99.90
2019-06-27T04:31:33.236Z,99.90
2019-06-27T04:34:22.526Z,99.90
2019-06-27T04:37:11.749Z,99.90
2019-06-27T04:40:00.917Z,99.90
2019-06-27T04:42:49.926Z,99.80
2019-06-27T04:45:41.398Z,99.70
2019-06-27T04:48:31.255Z,99.70
2019-06-27T04:51:20.649Z,99.90
2019-06-27T04:54:09.998Z,99.20
2019-06-27T04:56:59.299Z,99.40
2019-06-27T04:59:53.998Z,99.50
2019-06-27T05:02:38.967Z,99.60
2019-06-27T05:05:27.711Z,99.50
2019-06-27T05:08:04.290Z,99.50
2019-06-27T05:10:34.620Z,99.30
2019-06-27T05:13:04.926Z,99.20
2019-06-27T05:15:35.163Z,99.50
2019-06-27T05:18:23.869Z,99.60
2019-06-27T05:21:13.417Z,99.60
2019-06-27T05:24:02.583Z,99.50
2019-06-27T05:26:51.689Z,99.50
2019-06-27T05:29:40.782Z,99.60
2019-06-27T05:32:29.918Z,99.40
2019-06-27T05:35:19.527Z,99.50
2019-06-27T05:38:08.974Z,99.70
2019-06-27T05:40:58.026Z,99.70
2019-06-27T05:43:31.487Z,99.40
2019-06-27T05:46:01.694Z,99.30
2019-06-27T05:48:32.066Z,98.80
2019-06-27T05:51:02.313Z,99.00
2019-06-27T05:53:32.589Z,99.00
2019-06-27T05:56:02.882Z,99.10
2019-06-27T05:58:33.058Z,99.20
2019-06-27T06:01:03.125Z,99.10
2019-06-27T06:03:51.554Z,98.80
2019-06-27T06:06:40.740Z,99.00
2019-06-27T06:09:32.777Z,98.80
2019-06-27T06:12:19.849Z,98.90
2019-06-27T06:15:08.756Z,98.70
2019-06-27T06:17:57.395Z,98.60
2019-06-27T06:20:46.422Z,98.60
2019-06-27T06:23:35.362Z,98.70
2019-06-27T06:26:23.800Z,98.80
2019-06-27T06:29:14.476Z,98.70
2019-06-27T06:32:03.366Z,98.70
2019-06-27T06:34:52.878Z,98.70
2019-06-27T06:37:42.446Z,98.70
2019-06-27T06:40:31.055Z,98.90
2019-06-27T06:43:20.596Z,98.90
2019-06-27T06:46:09.608Z,98.90
2019-06-27T06:48:58.950Z,98.90
2019-06-27T06:51:47.781Z,99.10
2019-06-27T06:54:36.781Z,98.90
2019-06-27T06:57:26.206Z,98.40
2019-06-27T07:00:15.709Z,98.40
2019-06-27T07:03:04.717Z,98.50
2019-06-27T07:05:54.509Z,98.40
2019-06-27T07:08:43.940Z,98.50
2019-06-27T07:11:33.364Z,98.30
2019-06-27T07:14:27.006Z,98.40
2019-06-27T07:17:14.587Z,98.30
2019-06-27T07:20:03.444Z,98.20
2019-06-27T07:22:52.724Z,98.20
2019-06-27T07:25:42.129Z,97.80
2019-06-27T07:28:30.802Z,98.20
2019-06-27T07:31:20.112Z,98.00
2019-06-27T07:34:09.593Z,97.90
2019-06-27T07:36:59.075Z,98.00
2019-06-27T07:39:48.376Z,98.10
2019-06-27T07:42:37.378Z,97.80
2019-06-27T07:45:26.231Z,97.50
2019-06-27T07:48:15.862Z,97.60
2019-06-27T07:51:05.539Z,97.60
2019-06-27T07:53:54.245Z,97.30
2019-06-27T07:56:46.209Z,97.20
2019-06-27T07:59:33.744Z,97.20
2019-06-27T08:02:22.932Z,97.00
2019-06-27T08:05:12.817Z,96.90
2019-06-27T08:08:01.580Z,97.00
2019-06-27T08:10:50.577Z,97.00
2019-06-27T08:13:39.357Z,96.90
2019-06-27T08:16:28.909Z,96.70
2019-06-27T08:19:18.044Z,96.80
2019-06-27T08:22:07.741Z,96.50
2019-06-27T08:24:57.227Z,96.10
2019-06-27T08:27:46.711Z,95.70
2019-06-27T08:30:36.150Z,95.90
2019-06-27T08:33:25.518Z,95.80
2019-06-27T08:36:17.501Z,95.60
2019-06-27T08:39:08.544Z,95.50
2019-06-27T08:41:58.903Z,94.90
2019-06-27T08:44:48.138Z,94.80
2019-06-27T08:47:37.068Z,94.40
2019-06-27T08:50:26.627Z,94.40
2019-06-27T08:53:16.186Z,94.30
2019-06-27T08:56:05.586Z,93.90
2019-06-27T08:58:55.062Z,93.80
2019-06-27T09:01:45.202Z,93.50
2019-06-27T09:04:34.318Z,93.60
2019-06-27T09:07:24.376Z,93.60
2019-06-27T09:10:14.612Z,93.10
2019-06-27T09:13:03.608Z,92.90
2019-06-27T09:15:52.436Z,93.00
2019-06-27T09:18:41.816Z,92.80
2019-06-27T09:21:33.407Z,93.00
2019-06-27T09:24:22.385Z,92.80
2019-06-27T09:27:11.184Z,92.40
2019-06-27T09:30:00.943Z,92.00
2019-06-27T09:32:50.308Z,92.20
2019-06-27T09:35:39.321Z,92.60
2019-06-27T09:38:28.523Z,92.80
2019-06-27T09:41:18.053Z,92.40
2019-06-27T09:44:07.098Z,92.20
2019-06-27T09:46:56.557Z,92.50
2019-06-27T09:49:45.263Z,91.70
2019-06-27T09:52:35.348Z,92.00
2019-06-27T09:55:23.969Z,92.00
2019-06-27T09:58:13.679Z,91.20
2019-06-27T10:01:05.843Z,90.60
2019-06-27T10:03:53.403Z,90.70
2019-06-27T10:06:42.786Z,90.20
2019-06-27T10:09:31.994Z,90.40
2019-06-27T10:12:21.270Z,90.30
2019-06-27T10:15:09.933Z,89.10
2019-06-27T10:17:59.824Z,89.40
2019-06-27T10:20:50.198Z,89.30
2019-06-27T10:23:39.262Z,89.30
2019-06-27T10:26:28.329Z,86.40
2019-06-27T10:29:17.638Z,86.70
2019-06-27T10:32:06.542Z,87.60
2019-06-27T10:34:56.008Z,88.10
2019-06-27T10:37:44.974Z,86.60
2019-06-27T10:40:34.283Z,86.10
2019-06-27T10:43:23.749Z,85.40
2019-06-27T10:46:12.839Z,84.90
2019-06-27T10:49:01.810Z,84.20
2019-06-27T10:51:51.145Z,83.70
2019-06-27T10:54:39.942Z,83.70
2019-06-27T10:57:29.456Z,82.50
2019-06-27T11:00:18.561Z,82.70
2019-06-27T11:03:15.591Z,82.70
2019-06-27T11:05:58.494Z,82.60
2019-06-27T11:08:47.466Z,82.10
2019-06-27T11:11:37.100Z,82.50
2019-06-27T11:14:25.814Z,82.90
2019-06-27T11:17:15.179Z,80.60
2019-06-27T11:20:04.588Z,78.60
2019-06-27T11:22:54.096Z,78.30
2019-06-27T11:25:42.881Z,79.80
2019-06-27T11:28:32.107Z,78.80
2019-06-27T11:31:21.127Z,78.80
2019-06-27T11:34:10.399Z,78.70
2019-06-27T11:36:59.707Z,78.40
2019-06-27T11:39:49.100Z,77.30
2019-06-27T11:42:38.058Z,76.40
2019-06-27T11:45:27.312Z,77.70
2019-06-27T11:48:16.371Z,77.90
2019-06-27T11:51:06.003Z,76.50
2019-06-27T11:53:55.567Z,73.70
2019-06-27T11:56:44.829Z,75.80
2019-06-27T11:59:34.422Z,76.30
2019-06-27T12:02:25.292Z,75.40
2019-06-27T12:05:14.862Z,73.50
2019-06-27T12:08:04.478Z,72.50
2019-06-27T12:10:54.044Z,71.50
2019-06-27T12:13:43.851Z,69.90
2019-06-27T12:16:33.277Z,70.60
2019-06-27T12:19:23.807Z,69.70
2019-06-27T12:22:13.342Z,68.80
2019-06-27T12:25:03.016Z,67.10
2019-06-27T12:27:52.096Z,68.70
2019-06-27T12:30:41.442Z,70.60
2019-06-27T12:33:30.907Z,72.30
2019-06-27T12:36:20.386Z,70.40
2019-06-27T12:39:09.870Z,70.20
2019-06-27T12:42:00.180Z,70.50
2019-06-27T12:44:49.670Z,71.20
2019-06-27T12:47:39.054Z,72.20
2019-06-27T12:50:28.074Z,71.50
2019-06-27T12:53:17.053Z,73.20
2019-06-27T12:56:06.391Z,73.80
2019-06-27T12:58:55.991Z,71.50
2019-06-27T13:01:45.083Z,68.30
2019-06-27T13:04:33.919Z,70.40
2019-06-27T13:07:23.297Z,70.40
2019-06-27T13:10:13.008Z,69.30
2019-06-27T13:13:02.036Z,69.50
2019-06-27T13:15:52.087Z,71.10
2019-06-27T13:18:41.248Z,71.00
2019-06-27T13:21:11.536Z,68.00
2019-06-27T13:23:41.850Z,69.20
2019-06-27T13:26:12.411Z,68.50
2019-06-27T13:28:43.058Z,68.20
2019-06-27T13:31:13.379Z,66.40
2019-06-27T13:33:43.755Z,67.20
2019-06-27T13:36:14.453Z,65.80
2019-06-27T13:38:44.963Z,65.80
2019-06-27T13:41:15.086Z,63.40
2019-06-27T13:43:49.008Z,61.10
2019-06-27T13:46:19.123Z,63.20
2019-06-27T13:48:49.227Z,63.80
2019-06-27T13:51:19.201Z,63.90
2019-06-27T13:53:49.375Z,64.70
2019-06-27T13:56:19.437Z,64.90
2019-06-27T13:59:08.502Z,64.10
2019-06-27T14:01:57.496Z,62.70
2019-06-27T14:04:56.535Z,62.70
2019-06-27T14:07:37.291Z,64.70
2019-06-27T14:10:26.261Z,65.00
2019-06-27T14:13:15.826Z,63.70
2019-06-27T14:16:05.939Z,65.00
2019-06-27T14:18:55.791Z,64.30
2019-06-27T14:21:45.367Z,62.30
2019-06-27T14:24:34.805Z,62.70
2019-06-27T14:27:23.738Z,62.80
2019-06-27T14:30:10.292Z,60.80
2019-06-27T14:32:40.447Z,60.90
2019-06-27T14:35:15.906Z,61.70
2019-06-27T14:37:42.612Z,63.30
2019-06-27T14:40:13.508Z,63.60
2019-06-27T14:42:43.638Z,64.10
2019-06-27T14:45:14.145Z,65.30
2019-06-27T14:47:44.813Z,62.80
2019-06-27T14:50:15.042Z,61.00
2019-06-27T14:52:45.694Z,60.40
2019-06-27T14:55:17.226Z,61.70
2019-06-27T14:57:47.555Z,63.10
2019-06-27T15:00:18.025Z,61.40
2019-06-27T15:02:48.159Z,61.80
2019-06-27T15:05:31.970Z,63.30
2019-06-27T15:07:50.511Z,63.90
2019-06-27T15:10:21.374Z,65.00
2019-06-27T15:12:57.061Z,64.50
2019-06-27T15:15:23.419Z,64.80
2019-06-27T15:17:53.814Z,63.90
2019-06-27T15:20:24.389Z,64.30
2019-06-27T15:22:55.057Z,63.60
2019-06-27T15:25:28.261Z,64.40
2019-06-27T15:27:57.555Z,65.20
2019-06-27T15:30:28.097Z,65.70
2019-06-27T15:32:58.641Z,64.00
2019-06-27T15:35:33.447Z,63.80
2019-06-27T15:38:01.544Z,62.80
2019-06-27T15:40:32.035Z,63.60
2019-06-27T15:43:03.330Z,64.60
2019-06-27T15:45:33.553Z,64.00
2019-06-27T15:48:04.115Z,65.20
2019-06-27T15:50:34.532Z,63.40
2019-06-27T15:53:05.182Z,63.00
2019-06-27T15:55:35.376Z,63.20
2019-06-27T15:58:05.720Z,63.20
2019-06-27T16:00:39.172Z,62.90
2019-06-27T16:03:07.945Z,64.70
2019-06-27T16:05:38.084Z,63.40
2019-06-27T16:08:08.724Z,63.80
2019-06-27T16:10:39.009Z,65.30
2019-06-27T16:13:09.311Z,64.60
2019-06-27T16:15:39.443Z,63.00
2019-06-27T16:18:10.272Z,62.60
2019-06-27T16:20:40.511Z,62.40
2019-06-27T16:23:11.295Z,63.10
2019-06-27T16:25:41.927Z,65.00
2019-06-27T16:28:12.533Z,63.50
2019-06-27T16:30:42.712Z,63.60
2019-06-27T16:33:13.303Z,64.50
2019-06-27T16:35:43.325Z,64.90
2019-06-27T16:38:13.960Z,63.00
2019-06-27T16:40:44.306Z,64.30
2019-06-27T16:43:14.714Z,63.40
2019-06-27T16:45:44.967Z,63.40
2019-06-27T16:48:15.803Z,63.70
2019-06-27T16:50:46.148Z,64.60
2019-06-27T16:53:16.464Z,64.60
2019-06-27T16:55:46.765Z,62.90
2019-06-27T16:58:17.194Z,63.40
2019-06-27T17:00:47.504Z,64.30
2019-06-27T17:03:21.062Z,63.60
2019-06-27T17:05:51.474Z,64.80
2019-06-27T17:08:21.787Z,64.50
2019-06-27T17:10:52.095Z,64.50
2019-06-27T17:13:22.922Z,65.30
2019-06-27T17:15:53.043Z,64.40
2019-06-27T17:18:23.299Z,64.70
2019-06-27T17:20:53.423Z,64.80
2019-06-27T17:23:23.886Z,65.70
2019-06-27T17:25:54.252Z,65.60
2019-06-27T17:28:25.002Z,65.10
2019-06-27T17:30:55.890Z,64.60
2019-06-27T17:33:26.236Z,65.20
2019-06-27T17:35:56.757Z,65.70
2019-06-27T17:38:27.334Z,66.70
2019-06-27T17:40:57.435Z,67.20
2019-06-27T17:43:27.877Z,67.80
2019-06-27T17:45:58.359Z,67.60
2019-06-27T17:48:28.839Z,68.80
2019-06-27T17:51:00.037Z,68.90
2019-06-27T17:53:30.411Z,68.80
2019-06-27T17:56:01.227Z,67.50
2019-06-27T17:58:31.596Z,67.60
2019-06-27T18:01:01.941Z,68.00
2019-06-27T18:03:32.413Z,68.20
2019-06-27T18:06:02.811Z,68.00
2019-06-27T18:08:51.494Z,68.10
2019-06-27T18:11:40.711Z,68.50
2019-06-27T18:14:30.222Z,69.50
2019-06-27T18:17:32.548Z,67.50
2019-06-27T18:20:11.006Z,68.70
2019-06-27T18:23:00.561Z,69.80
2019-06-27T18:25:49.605Z,70.50
2019-06-27T18:28:38.862Z,70.90
2019-06-27T18:31:29.021Z,71.40
2019-06-27T18:34:17.881Z,72.10
2019-06-27T18:37:06.661Z,72.50
2019-06-27T18:39:55.766Z,72.40
2019-06-27T18:42:44.859Z,72.80
2019-06-27T18:45:33.722Z,72.30
2019-06-27T18:48:23.163Z,72.80
2019-06-27T18:51:12.598Z,73.40
2019-06-27T18:54:01.359Z,73.70
2019-06-27T18:56:50.359Z,73.70
2019-06-27T18:59:39.195Z,73.90
2019-06-27T19:02:28.336Z,74.20
2019-06-27T19:05:17.198Z,74.00
2019-06-27T19:08:06.511Z,74.30
2019-06-27T19:10:55.231Z,74.60
2019-06-27T19:13:44.773Z,74.90
2019-06-27T19:16:33.750Z,74.90
2019-06-27T19:19:25.962Z,75.00
2019-06-27T19:22:23.623Z,75.60
2019-06-27T19:25:21.767Z,75.20
2019-06-27T19:28:11.414Z,75.80
2019-06-27T19:31:00.203Z,75.90
2019-06-27T19:33:49.799Z,75.80
2019-06-27T19:36:38.926Z,76.40
2019-06-27T19:39:27.955Z,76.70
2019-06-27T19:42:17.553Z,77.20
2019-06-27T19:45:07.356Z,77.80
2019-06-27T19:47:56.514Z,78.30
2019-06-27T19:50:45.493Z,78.70
2019-06-27T19:53:35.090Z,80.10
2019-06-27T19:56:24.541Z,81.10
2019-06-27T19:59:13.375Z,81.60
2019-06-27T20:02:02.737Z,81.40
2019-06-27T20:04:51.847Z,82.60
2019-06-27T20:07:43.392Z,82.20
2019-06-27T20:10:32.250Z,83.00
2019-06-27T20:13:21.371Z,83.50
2019-06-27T20:16:10.532Z,83.40
2019-06-27T20:19:00.053Z,83.90
2019-06-27T20:21:49.477Z,83.20
2019-06-27T20:24:38.954Z,83.60
2019-06-27T20:27:28.401Z,83.50
2019-06-27T20:30:18.262Z,84.40
2019-06-27T20:33:07.139Z,84.40
2019-06-27T20:35:56.613Z,84.60
2019-06-27T20:38:45.976Z,84.50
2019-06-27T20:41:35.184Z,84.80
2019-06-27T20:44:28.339Z,85.20
2019-06-27T20:47:17.475Z,85.40
2019-06-27T20:50:06.738Z,85.40
2019-06-27T20:52:55.972Z,85.60
2019-06-27T20:55:44.891Z,85.50
2019-06-27T20:58:34.099Z,85.60
2019-06-27T21:01:24.572Z,86.00
2019-06-27T21:04:13.577Z,87.10
2019-06-27T21:07:02.756Z,86.60
2019-06-27T21:09:52.131Z,86.60
2019-06-27T21:12:41.336Z,87.20
2019-06-27T21:15:30.913Z,87.10
2019-06-27T21:18:19.665Z,87.10
2019-06-27T21:21:09.065Z,87.50
2019-06-27T21:23:58.743Z,87.30
2019-06-27T21:26:47.804Z,87.60
2019-06-27T21:29:37.113Z,87.10
2019-06-27T21:32:31.414Z,87.10
2019-06-27T21:35:17.635Z,87.30
2019-06-27T21:38:06.421Z,87.60
2019-06-27T21:40:55.353Z,87.80
2019-06-27T21:43:44.368Z,87.60
2019-06-27T21:46:33.596Z,87.70
2019-06-27T21:49:24.083Z,88.10
2019-06-27T21:52:13.518Z,88.10
2019-06-27T21:55:03.219Z,88.20
2019-06-27T21:57:52.828Z,88.20
2019-06-27T22:00:42.029Z,87.60
2019-06-27T22:03:31.053Z,88.40
2019-06-27T22:06:19.955Z,87.80
2019-06-27T22:09:23.483Z,87.80
2019-06-27T22:11:59.513Z,87.60
2019-06-27T22:14:48.560Z,87.60
2019-06-27T22:17:37.568Z,87.60
2019-06-27T22:20:26.925Z,87.90
2019-06-27T22:23:15.797Z,87.90
2019-06-27T22:26:05.132Z,87.80
2019-06-27T22:28:54.238Z,87.50
2019-06-27T22:31:43.198Z,87.40
2019-06-27T22:34:32.759Z,87.40
2019-06-27T22:37:24.051Z,87.70
2019-06-27T22:40:31.497Z,87.80
2019-06-27T22:43:38.310Z,87.50
2019-06-27T22:46:45.799Z,87.80
2019-06-27T22:49:33.935Z,88.20
2019-06-27T22:52:44.988Z,88.30
2019-06-27T22:55:34.090Z,88.40
2019-06-27T22:58:23.111Z,88.10
2019-06-27T23:01:11.922Z,88.40
2019-06-27T23:04:01.017Z,88.70
2019-06-27T23:06:50.438Z,89.10
2019-06-27T23:09:39.237Z,89.30
2019-06-27T23:12:28.411Z,89.40
2019-06-27T23:15:17.788Z,89.40
2019-06-27T23:18:06.318Z,89.60
2019-06-27T23:20:55.039Z,89.60
2019-06-27T23:23:44.654Z,89.60
2019-06-27T23:26:34.126Z,89.70
2019-06-27T23:29:22.765Z,89.60
2019-06-27T23:32:11.810Z,89.60
2019-06-27T23:35:01.039Z,89.60
2019-06-27T23:37:49.889Z,89.70
2019-06-27T23:40:38.657Z,89.90
2019-06-27T23:43:27.871Z,90.10
2019-06-27T23:46:34.657Z,90.20
2019-06-27T23:49:23.767Z,90.40
2019-06-27T23:52:12.689Z,90.30
2019-06-27T23:55:01.556Z,90.20
2019-06-27T23:57:50.917Z,89.90
